createdAt,value
2022-07-31T00:02:41.015Z,15.10
2022-07-31T00:06:56.374Z,14.57
2022-07-31T00:11:11.686Z,15.07
2022-07-31T00:15:25.999Z,14.90
2022-07-31T00:19:41.593Z,14.90
2022-07-31T00:23:58.333Z,15.05
2022-07-31T00:28:12.424Z,14.93
2022-07-31T00:32:26.128Z,15.00
2022-07-31T00:36:40.158Z,15.15
2022-07-31T00:40:56.747Z,17.20
2022-07-31T00:45:13.698Z,16.63
2022-07-31T00:49:37.278Z,16.25
2022-07-31T00:53:51.806Z,15.73
2022-07-31T00:58:07.235Z,15.35
2022-07-31T01:02:21.178Z,16.25
2022-07-31T01:06:37.591Z,15.40
2022-07-31T01:10:58.971Z,15.50
2022-07-31T01:15:16.367Z,15.77
2022-07-31T01:19:39.767Z,14.88
2022-07-31T01:24:30.455Z,14.67
2022-07-31T01:29:07.512Z,15.07
2022-07-31T01:33:29.851Z,15.15
2022-07-31T01:37:48.772Z,15.27
2022-07-31T01:42:06.174Z,15.52
2022-07-31T01:46:22.435Z,15.32
2022-07-31T01:50:42.315Z,15.27
2022-07-31T01:55:00.855Z,15.67
2022-07-31T01:59:22.484Z,15.30
2022-07-31T02:04:11.236Z,16.40
2022-07-31T02:08:26.672Z,16.63
2022-07-31T02:12:42.792Z,15.40
2022-07-31T02:16:57.455Z,16.52
2022-07-31T02:21:27.313Z,16.30
2022-07-31T02:25:42.205Z,15.40
2022-07-31T02:29:58.660Z,17.02
2022-07-31T02:34:14.722Z,15.73
2022-07-31T02:38:30.113Z,15.53
2022-07-31T02:42:44.503Z,15.48
2022-07-31T02:46:59.562Z,16.27
2022-07-31T02:51:13.826Z,17.30
2022-07-31T02:55:30.302Z,17.15
2022-07-31T02:59:45.067Z,17.08
2022-07-31T03:03:59.406Z,17.57
2022-07-31T03:08:15.377Z,16.38
2022-07-31T03:12:34.146Z,17.63
2022-07-31T03:16:49.494Z,16.98
2022-07-31T03:21:03.347Z,17.10
2022-07-31T03:25:21.660Z,18.02
2022-07-31T03:29:43.202Z,17.35
2022-07-31T03:33:58.113Z,18.57
2022-07-31T03:38:41.125Z,18.75
2022-07-31T03:42:51.205Z,19.10
2022-07-31T03:47:08.294Z,18.50
2022-07-31T03:51:22.358Z,17.60
2022-07-31T03:55:38.860Z,17.25
2022-07-31T03:59:56.319Z,17.27
2022-07-31T04:04:13.534Z,15.00
2022-07-31T04:08:42.540Z,14.65
2022-07-31T04:12:56.506Z,14.40
2022-07-31T04:17:11.323Z,13.37
2022-07-31T04:21:26.480Z,13.98
2022-07-31T04:25:40.301Z,12.68
2022-07-31T04:30:12.631Z,12.00
2022-07-31T04:34:27.050Z,11.52
2022-07-31T04:38:42.698Z,11.52
2022-07-31T04:42:57.978Z,10.82
2022-07-31T04:47:12.096Z,9.67
2022-07-31T04:51:29.756Z,10.57
2022-07-31T04:56:05.466Z,10.05
2022-07-31T05:00:19.470Z,10.03
2022-07-31T05:04:33.578Z,9.80
2022-07-31T05:08:47.483Z,9.68
2022-07-31T05:13:02.816Z,8.77
2022-07-31T05:17:18.329Z,8.45
2022-07-31T05:22:03.796Z,8.88
2022-07-31T05:26:27.736Z,7.88
2022-07-31T05:30:43.123Z,7.40
2022-07-31T05:34:57.239Z,7.70
2022-07-31T05:39:12.305Z,7.63
2022-07-31T05:43:25.972Z,7.27
2022-07-31T05:47:51.883Z,7.50
2022-07-31T05:52:06.730Z,7.13
2022-07-31T05:56:20.621Z,7.07
2022-07-31T06:00:37.613Z,7.53
2022-07-31T06:04:53.103Z,7.07
2022-07-31T06:09:06.884Z,6.80
2022-07-31T06:13:30.169Z,6.13
2022-07-31T06:17:48.844Z,7.30
2022-07-31T06:22:12.287Z,7.07
2022-07-31T06:26:27.592Z,6.90
2022-07-31T06:30:41.853Z,6.43
2022-07-31T06:34:55.948Z,6.90
2022-07-31T06:39:11.938Z,7.20
2022-07-31T06:43:46.116Z,7.15
2022-07-31T06:48:25.731Z,6.93
2022-07-31T06:52:49.991Z,6.60
2022-07-31T06:57:05.399Z,6.97
2022-07-31T07:01:19.338Z,6.80
2022-07-31T07:05:33.284Z,7.05
2022-07-31T07:09:48.632Z,6.80
2022-07-31T07:14:17.298Z,7.07
2022-07-31T07:18:31.172Z,7.10
2022-07-31T07:22:47.891Z,7.10
2022-07-31T07:27:14.571Z,6.68
2022-07-31T07:31:29.843Z,5.88
2022-07-31T07:35:44.760Z,6.55
2022-07-31T07:40:04.502Z,5.97
2022-07-31T07:44:18.399Z,5.90
2022-07-31T07:48:33.554Z,6.25
2022-07-31T07:53:05.250Z,6.60
2022-07-31T07:57:40.459Z,6.03
2022-07-31T08:02:13.655Z,5.72
2022-07-31T08:06:29.028Z,5.70
2022-07-31T08:10:43.261Z,5.15
2022-07-31T08:15:10.918Z,5.55
2022-07-31T08:19:39.961Z,5.50
2022-07-31T08:23:55.620Z,5.27
2022-07-31T08:28:13.797Z,4.90
2022-07-31T08:32:33.617Z,5.50
2022-07-31T08:37:50.797Z,5.67
2022-07-31T08:41:54.544Z,4.65
2022-07-31T08:46:10.620Z,5.13
2022-07-31T08:50:27.861Z,4.67
2022-07-31T08:54:46.039Z,4.57
2022-07-31T08:59:01.867Z,4.80
2022-07-31T09:03:16.559Z,4.45
2022-07-31T09:07:32.889Z,4.53
2022-07-31T09:11:49.939Z,4.85
2022-07-31T09:16:30.889Z,4.40
2022-07-31T09:20:56.097Z,4.50
2022-07-31T09:25:16.058Z,4.50
2022-07-31T09:29:38.859Z,4.10
2022-07-31T09:33:56.400Z,4.63
2022-07-31T09:38:13.174Z,4.55
2022-07-31T09:42:55.303Z,4.47
2022-07-31T09:47:23.064Z,3.97
2022-07-31T09:51:41.134Z,4.30
2022-07-31T09:55:58.129Z,4.28
2022-07-31T10:00:17.185Z,3.80
2022-07-31T10:04:32.740Z,3.70
2022-07-31T10:08:50.522Z,3.53
2022-07-31T10:13:13.239Z,3.50
2022-07-31T10:17:36.193Z,3.40
2022-07-31T10:22:24.294Z,3.60
2022-07-31T10:26:59.752Z,3.17
2022-07-31T10:31:13.888Z,2.90
2022-07-31T10:35:30.217Z,3.13
2022-07-31T10:40:02.409Z,2.83
2022-07-31T10:44:28.849Z,2.80
2022-07-31T10:49:08.518Z,2.67
2022-07-31T10:53:51.412Z,2.92
2022-07-31T10:58:28.030Z,2.90
2022-07-31T11:03:16.207Z,2.60
2022-07-31T11:07:48.935Z,2.90
2022-07-31T11:12:22.654Z,2.75
2022-07-31T11:16:55.909Z,2.65
2022-07-31T11:21:39.907Z,3.00
2022-07-31T11:25:53.946Z,2.50
2022-07-31T11:30:13.528Z,2.45
2022-07-31T11:34:27.809Z,2.50
2022-07-31T11:38:46.813Z,2.40
2022-07-31T11:48:12.433Z,2.50
2022-07-31T11:52:30.673Z,2.80
2022-07-31T11:56:48.856Z,2.55
2022-07-31T12:01:05.555Z,2.45
2022-07-31T12:05:19.351Z,2.60
2022-07-31T12:10:00.879Z,2.60
2022-07-31T12:14:29.088Z,2.95
2022-07-31T12:18:51.497Z,2.90
2022-07-31T12:23:06.961Z,3.10
2022-07-31T12:27:42.076Z,2.67
2022-07-31T12:31:58.769Z,2.90
2022-07-31T12:36:16.649Z,2.72
2022-07-31T12:40:30.709Z,2.65
2022-07-31T12:44:49.331Z,3.00
2022-07-31T12:49:04.872Z,2.40
2022-07-31T12:53:18.677Z,2.50
2022-07-31T12:57:32.650Z,2.28
2022-07-31T13:01:46.535Z,2.17
2022-07-31T13:06:01.675Z,2.30
2022-07-31T13:10:23.801Z,2.35
2022-07-31T13:14:38.575Z,2.13
2022-07-31T13:31:31.690Z,2.17
2022-07-31T13:35:45.443Z,2.33
2022-07-31T13:39:59.267Z,2.30
2022-07-31T13:44:12.981Z,2.20
2022-07-31T13:48:28.195Z,2.20
2022-07-31T13:52:41.951Z,2.40
2022-07-31T13:56:56.271Z,2.50
2022-07-31T14:01:10.177Z,2.50
2022-07-31T14:05:26.463Z,2.50
2022-07-31T14:15:18.211Z,2.40
2022-07-31T14:19:40.519Z,2.50
2022-07-31T14:23:59.747Z,2.40
2022-07-31T14:28:13.469Z,2.45
2022-07-31T14:32:27.304Z,2.20
2022-07-31T14:36:42.275Z,2.40
2022-07-31T14:40:57.363Z,2.60
2022-07-31T14:45:11.981Z,2.30
2022-07-31T14:49:25.811Z,2.55
2022-07-31T14:53:59.672Z,2.60
2022-07-31T14:58:14.799Z,2.55
2022-07-31T15:02:28.648Z,2.50
2022-07-31T15:06:55.963Z,2.38
2022-07-31T15:11:16.146Z,2.75
2022-07-31T15:15:31.913Z,2.33
2022-07-31T15:19:48.075Z,2.20
2022-07-31T15:24:01.907Z,2.70
2022-07-31T15:28:15.616Z,2.87
2022-07-31T15:32:30.835Z,2.60
2022-07-31T15:36:44.486Z,2.53
2022-07-31T15:40:58.267Z,2.70
2022-07-31T15:45:13.383Z,2.60
2022-07-31T15:49:28.606Z,2.83
2022-07-31T15:53:56.985Z,2.28
2022-07-31T15:58:10.748Z,2.57
2022-07-31T16:02:25.280Z,2.35
2022-07-31T16:06:40.428Z,2.55
2022-07-31T16:10:55.079Z,2.50
2022-07-31T16:15:11.296Z,2.50
2022-07-31T16:19:25.211Z,2.50
2022-07-31T16:23:40.663Z,2.50
2022-07-31T16:27:54.941Z,2.80
2022-07-31T16:32:09.220Z,2.50
2022-07-31T16:36:23.111Z,2.30
2022-07-31T16:40:38.260Z,2.50
2022-07-31T16:44:54.447Z,2.38
2022-07-31T16:49:28.367Z,2.60
2022-07-31T16:54:14.562Z,2.40
2022-07-31T16:58:19.505Z,2.65
2022-07-31T17:02:38.754Z,2.72
2022-07-31T17:06:52.584Z,3.10
2022-07-31T17:11:06.941Z,2.60
2022-07-31T17:15:22.502Z,2.97
2022-07-31T17:19:45.850Z,2.40
2022-07-31T17:24:01.096Z,2.60
2022-07-31T17:28:17.725Z,2.60
2022-07-31T17:32:33.909Z,2.78
2022-07-31T17:36:50.264Z,2.60
2022-07-31T17:41:04.637Z,3.28
2022-07-31T17:45:20.483Z,2.83
2022-07-31T17:49:37.890Z,2.95
2022-07-31T17:53:55.299Z,2.80
2022-07-31T17:58:12.724Z,2.80
2022-07-31T18:02:26.565Z,3.03
2022-07-31T18:06:41.719Z,3.27
2022-07-31T18:10:55.419Z,2.97
2022-07-31T18:15:11.928Z,3.10
2022-07-31T18:19:25.714Z,3.30
2022-07-31T18:23:43.664Z,3.42
2022-07-31T18:28:01.310Z,3.20
2022-07-31T18:32:15.001Z,3.00
2022-07-31T18:36:28.745Z,3.50
2022-07-31T18:40:43.834Z,3.30
2022-07-31T18:44:58.296Z,3.65
2022-07-31T18:50:58.844Z,3.57
2022-07-31T18:53:46.447Z,3.80
2022-07-31T18:58:02.134Z,3.50
2022-07-31T19:02:20.606Z,3.53
2022-07-31T19:06:35.839Z,3.47
2022-07-31T19:10:53.242Z,3.67
2022-07-31T19:15:09.509Z,3.97
2022-07-31T19:19:23.191Z,3.53
2022-07-31T19:23:37.858Z,3.45
2022-07-31T19:27:52.027Z,3.10
2022-07-31T19:32:07.896Z,3.33
2022-07-31T19:36:21.884Z,3.10
2022-07-31T19:40:35.792Z,3.33
2022-07-31T19:44:49.574Z,3.77
2022-07-31T19:49:05.082Z,3.30
2022-07-31T19:53:18.915Z,3.20
2022-07-31T19:57:32.698Z,3.40
2022-07-31T20:01:46.894Z,2.77
2022-07-31T20:06:02.098Z,3.00
2022-07-31T20:10:15.972Z,3.10
2022-07-31T20:14:29.752Z,3.30
2022-07-31T20:18:43.792Z,2.90
2022-07-31T20:22:58.943Z,3.20
2022-07-31T20:27:12.802Z,3.40
2022-07-31T20:31:26.960Z,3.30
2022-07-31T20:35:48.435Z,3.42
2022-07-31T20:40:06.919Z,3.30
2022-07-31T20:44:21.009Z,3.50
2022-07-31T20:48:38.978Z,3.58
2022-07-31T20:52:52.723Z,3.45
2022-07-31T20:57:08.075Z,3.40
2022-07-31T21:01:22.963Z,3.40
2022-07-31T21:05:36.922Z,3.40
2022-07-31T21:09:50.751Z,3.50
2022-07-31T21:14:05.938Z,3.72
2022-07-31T21:18:20.963Z,3.58
2022-07-31T21:22:35.063Z,3.55
2022-07-31T21:26:51.847Z,3.03
2022-07-31T21:31:12.393Z,3.40
2022-07-31T21:35:36.981Z,3.28
2022-07-31T21:39:52.411Z,3.10
2022-07-31T21:44:06.638Z,3.53
2022-07-31T21:48:24.972Z,3.80
2022-07-31T21:52:39.197Z,3.47
2022-07-31T21:56:53.605Z,3.50
2022-07-31T22:01:10.558Z,3.35
2022-07-31T22:05:43.509Z,3.50
2022-07-31T22:09:57.890Z,3.20
2022-07-31T22:14:11.804Z,3.60
2022-07-31T22:18:26.811Z,3.42
2022-07-31T22:22:46.281Z,3.40
2022-07-31T22:27:18.771Z,3.63
2022-07-31T22:31:32.825Z,3.30
2022-07-31T22:35:59.456Z,3.63
2022-07-31T22:40:18.330Z,3.53
2022-07-31T22:44:33.505Z,3.55
2022-07-31T22:48:47.542Z,3.60
2022-07-31T22:53:01.621Z,3.67
2022-07-31T22:57:17.346Z,3.75
2022-07-31T23:01:34.027Z,3.80
2022-07-31T23:06:28.184Z,4.33
2022-07-31T23:10:21.752Z,3.88
2022-07-31T23:14:37.235Z,4.05
2022-07-31T23:18:51.253Z,4.10
2022-07-31T23:23:04.983Z,4.45
2022-07-31T23:27:18.809Z,4.25
2022-07-31T23:31:34.207Z,3.85
2022-07-31T23:35:48.108Z,3.70
2022-07-31T23:40:02.067Z,4.50
2022-07-31T23:44:18.623Z,4.20
2022-07-31T23:48:40.263Z,4.80
2022-07-31T23:52:54.262Z,4.32
2022-07-31T23:57:08.027Z,3.97
